Time;durP1;ratioP1;P1;durP2;ratioP2;P2;SDS_P1;SDS_P2;PMS_P1;PMS_P2;Temp;Humidity;BMP_temperature;BMP_pressure;BME280_temperature;BME280_humidity;BME280_pressure;Samples;Min_cycle;Max_cycle;Signal;HPM_P1;HPM_P2
2022/09/15 00:00:41;;;;;;;2.22;1.00;;;20.50;99.90;;;;;;4973938;28;20034;-71
2022/09/15 00:03:07;;;;;;;0.95;0.70;;;20.50;99.90;;;;;;4973980;28;20547;-69
2022/09/15 00:05:32;;;;;;;1.10;0.95;;;20.50;99.90;;;;;;4974366;28;20023;-69
2022/09/15 00:07:58;;;;;;;4.07;1.10;;;20.50;99.90;;;;;;4974130;28;20037;-69
2022/09/15 00:10:24;;;;;;;2.08;1.00;;;20.50;99.90;;;;;;4974415;28;20375;-68
2022/09/15 00:12:49;;;;;;;1.67;1.25;;;20.50;99.90;;;;;;4973632;28;20038;-68
2022/09/15 00:15:16;;;;;;;0.90;0.80;;;20.50;99.90;;;;;;4984232;28;20442;-69
2022/09/15 00:17:46;;;;;;;1.52;0.88;;;20.50;99.90;;;;;;4992752;28;20026;-69
2022/09/15 00:20:12;;;;;;;0.65;0.55;;;20.50;99.90;;;;;;4991328;28;20426;-69
2022/09/15 00:22:37;;;;;;;2.25;0.95;;;20.50;99.90;;;;;;4975960;28;20046;-69
2022/09/15 00:25:03;;;;;;;1.88;1.10;;;20.50;99.90;;;;;;4992864;28;20026;-71
2022/09/15 00:27:31;;;;;;;2.13;1.20;;;20.50;99.90;;;;;;4993435;28;20037;-68
2022/09/15 00:29:56;;;;;;;1.35;1.13;;;20.50;99.90;;;;;;4992801;28;20038;-69
2022/09/15 00:32:22;;;;;;;2.28;0.98;;;20.50;99.90;;;;;;4993206;28;20030;-69
2022/09/15 00:34:49;;;;;;;1.83;1.00;;;20.50;99.90;;;;;;4992764;28;20390;-69
2022/09/15 00:37:15;;;;;;;5.30;1.15;;;20.60;99.90;;;;;;4992791;28;20485;-69
2022/09/15 00:39:41;;;;;;;4.72;1.10;;;20.50;99.90;;;;;;4993023;28;20176;-69
2022/09/15 00:42:19;;;;;;;2.28;1.05;;;20.50;99.90;;;;;;4992575;28;20190;-68
2022/09/15 00:44:47;;;;;;;2.38;0.93;;;20.50;99.90;;;;;;4993160;28;20375;-69
2022/09/15 00:47:13;;;;;;;2.60;1.00;;;20.50;99.90;;;;;;4992946;28;20022;-68
2022/09/15 00:49:40;;;;;;;3.38;0.95;;;20.50;99.90;;;;;;4993180;28;20348;-68
2022/09/15 00:52:14;;;;;;;1.75;0.90;;;20.50;99.90;;;;;;4992154;28;20113;-69
2022/09/15 00:54:57;;;;;;;1.95;1.00;;;20.50;99.90;;;;;;4993104;28;20033;-68
2022/09/15 00:57:41;;;;;;;4.07;1.00;;;20.50;99.90;;;;;;4993203;28;20042;-69
2022/09/15 01:00:11;;;;;;;2.47;0.80;;;20.50;99.90;;;;;;4992539;28;20031;-68
2022/09/15 01:02:38;;;;;;;3.00;1.00;;;20.50;99.90;;;;;;4992645;28;20447;-69
2022/09/15 01:05:09;;;;;;;1.65;0.90;;;20.50;99.90;;;;;;4992412;28;20085;-68
2022/09/15 01:07:53;;;;;;;1.00;0.77;;;20.50;99.90;;;;;;4993132;28;20078;-68
2022/09/15 01:10:26;;;;;;;1.00;0.75;;;20.50;99.90;;;;;;4993152;28;20467;-69
2022/09/15 01:12:56;;;;;;;7.57;0.80;;;20.50;99.90;;;;;;4992441;28;20113;-69
2022/09/15 01:15:28;;;;;;;1.55;0.80;;;20.50;99.90;;;;;;4993215;28;20057;-69
2022/09/15 01:18:19;;;;;;;6.82;1.00;;;20.50;99.90;;;;;;4992038;28;20027;-69
2022/09/15 01:21:06;;;;;;;4.43;1.20;;;20.50;99.90;;;;;;4992723;28;20037;-68
2022/09/15 01:23:50;;;;;;;2.83;0.95;;;20.50;99.90;;;;;;4992578;28;20036;-69
2022/09/15 01:26:41;;;;;;;3.25;0.90;;;20.50;99.90;;;;;;4992816;28;20046;-68
2022/09/15 01:29:37;;;;;;;3.85;1.42;;;20.50;99.90;;;;;;4992454;28;20049;-69
2022/09/15 01:35:34;;;;;;;1.60;0.82;;;20.60;99.90;;;;;;4992363;28;20060;-67
2022/09/15 01:38:24;;;;;;;1.60;0.80;;;20.60;99.90;;;;;;4952259;28;20053;-68
2022/09/15 01:41:17;;;;;;;6.80;1.00;;;20.50;99.90;;;;;;4992388;28;20033;-68
2022/09/15 01:44:05;;;;;;;1.30;0.88;;;20.50;99.90;;;;;;4992113;28;20292;-68
2022/09/15 01:46:35;;;;;;;6.43;1.27;;;20.60;99.90;;;;;;4992675;28;20109;-68
2022/09/15 01:49:03;;;;;;;4.57;1.13;;;20.50;99.90;;;;;;4993606;28;20031;-68
2022/09/15 01:51:32;;;;;;;1.10;1.00;;;20.50;99.90;;;;;;4996263;28;20058;-67
2022/09/15 01:54:01;;;;;;;0.98;0.70;;;20.50;99.90;;;;;;4995597;28;20042;-68
2022/09/15 01:56:27;;;;;;;2.83;1.08;;;20.50;99.90;;;;;;4996153;28;20026;-69
2022/09/15 01:58:53;;;;;;;1.27;1.00;;;20.50;99.90;;;;;;4995682;28;20390;-70
2022/09/15 02:01:32;;;;;;;0.80;0.80;;;20.50;99.90;;;;;;4996267;28;20149;-69
2022/09/15 02:04:28;;;;;;;2.08;0.90;;;20.50;99.90;;;;;;4978187;28;20034;-68
2022/09/15 02:06:57;;;;;;;1.80;0.65;;;20.50;99.90;;;;;;4993998;28;20109;-69
2022/09/15 02:09:35;;;;;;;0.90;0.80;;;20.50;99.90;;;;;;4995839;28;20022;-68
2022/09/15 02:12:11;;;;;;;1.08;0.70;;;20.50;99.90;;;;;;4978035;28;20065;-68
2022/09/15 02:14:56;;;;;;;1.88;0.70;;;20.50;99.90;;;;;;4995737;28;20382;-68
2022/09/15 02:17:25;;;;;;;1.27;0.90;;;20.50;99.90;;;;;;4995961;28;20030;-68
2022/09/15 02:20:14;;;;;;;3.17;1.17;;;20.50;99.90;;;;;;4995341;28;20414;-69
2022/09/15 02:22:44;;;;;;;2.40;0.90;;;20.50;99.90;;;;;;4995695;28;20038;-68
2022/09/15 02:25:23;;;;;;;0.90;0.77;;;20.50;99.90;;;;;;4985183;28;20423;-68
2022/09/15 02:27:53;;;;;;;5.75;0.95;;;20.50;99.90;;;;;;4976274;28;20493;-69
2022/09/15 02:30:20;;;;;;;2.50;1.10;;;20.50;99.90;;;;;;4976132;28;20027;-69
2022/09/15 02:32:59;;;;;;;1.85;0.68;;;20.50;99.90;;;;;;4975816;28;20106;-69
2022/09/15 02:35:28;;;;;;;1.65;0.90;;;20.50;99.90;;;;;;4976069;28;20378;-69
2022/09/15 02:37:55;;;;;;;3.20;1.42;;;20.50;99.90;;;;;;4975625;28;20051;-71
2022/09/15 02:40:21;;;;;;;1.95;0.90;;;20.50;99.90;;;;;;4975786;28;20035;-69
2022/09/15 02:43:00;;;;;;;4.45;1.00;;;20.60;99.90;;;;;;4985875;28;20218;-69
2022/09/15 02:45:27;;;;;;;2.97;0.95;;;20.50;99.90;;;;;;4995557;28;20383;-69
2022/09/15 02:47:53;;;;;;;1.70;0.90;;;20.50;99.90;;;;;;4978106;28;20030;-70
2022/09/15 02:50:19;;;;;;;2.50;1.25;;;20.50;99.90;;;;;;4995237;28;20045;-69
2022/09/15 02:52:45;;;;;;;2.20;0.90;;;20.50;99.90;;;;;;4995144;28;20379;-68
2022/09/15 02:55:11;;;;;;;1.38;0.90;;;20.50;99.90;;;;;;4994763;28;20474;-68
2022/09/15 02:57:37;;;;;;;3.88;1.05;;;20.50;99.90;;;;;;4977506;28;20037;-68
2022/09/15 03:00:15;;;;;;;1.00;0.70;;;20.50;99.90;;;;;;4994148;28;20102;-69
2022/09/15 03:02:44;;;;;;;1.38;1.08;;;20.40;99.90;;;;;;4995050;28;20042;-69
2022/09/15 03:05:11;;;;;;;6.65;1.25;;;20.40;99.90;;;;;;4994642;28;20030;-68
2022/09/15 03:07:37;;;;;;;3.20;0.70;;;20.40;99.90;;;;;;4994687;28;20038;-68
2022/09/15 03:10:04;;;;;;;2.20;1.08;;;20.40;99.90;;;;;;4994324;28;20088;-68
2022/09/15 03:12:30;;;;;;;1.30;0.88;;;20.40;99.90;;;;;;4994756;28;20410;-68
2022/09/15 03:14:56;;;;;;;3.35;0.88;;;20.40;99.90;;;;;;4994197;28;20028;-69
2022/09/15 03:17:21;;;;;;;3.92;0.85;;;20.40;99.90;;;;;;4994783;28;20085;-68
2022/09/15 03:19:47;;;;;;;2.70;1.08;;;20.30;99.90;;;;;;4994481;28;20463;-67
2022/09/15 03:22:12;;;;;;;2.75;1.23;;;20.30;99.90;;;;;;4993742;28;20037;-68
2022/09/15 03:24:39;;;;;;;5.95;1.00;;;20.20;99.90;;;;;;4977045;28;20113;-68
2022/09/15 03:27:04;;;;;;;1.98;0.80;;;20.20;99.90;;;;;;4994156;28;20092;-69
2022/09/15 03:29:31;;;;;;;1.38;1.20;;;20.20;99.90;;;;;;4994495;28;20026;-68
2022/09/15 03:31:56;;;;;;;5.85;1.30;;;20.20;99.90;;;;;;4994364;28;20050;-70
2022/09/15 03:34:22;;;;;;;3.40;1.10;;;20.20;99.90;;;;;;4994053;28;20073;-69
2022/09/15 03:36:47;;;;;;;2.70;1.10;;;20.20;99.90;;;;;;4994215;28;20402;-68
2022/09/15 03:39:13;;;;;;;1.20;0.98;;;20.10;99.90;;;;;;4993391;28;20022;-69
2022/09/15 03:41:39;;;;;;;4.53;1.35;;;20.10;99.90;;;;;;4994351;28;20156;-69
2022/09/15 03:44:05;;;;;;;1.48;1.00;;;20.10;99.90;;;;;;4993875;28;20117;-70
2022/09/15 03:46:31;;;;;;;1.95;1.10;;;20.10;99.90;;;;;;4994344;28;20113;-69
2022/09/15 03:48:56;;;;;;;1.73;0.95;;;20.10;99.90;;;;;;4994980;28;20022;-69
2022/09/15 03:51:22;;;;;;;3.33;1.20;;;20.10;99.90;;;;;;4994590;28;20022;-69
2022/09/15 03:53:48;;;;;;;0.85;0.85;;;20.10;99.90;;;;;;4994893;28;20088;-69
2022/09/15 03:56:17;;;;;;;2.47;1.25;;;20.10;99.90;;;;;;4994556;28;20026;-69
2022/09/15 03:58:42;;;;;;;1.70;0.82;;;20.10;99.90;;;;;;4994951;28;20080;-69
2022/09/15 04:01:08;;;;;;;2.55;1.00;;;20.10;99.90;;;;;;4994207;28;20022;-69
2022/09/15 04:03:34;;;;;;;1.50;1.25;;;20.20;99.90;;;;;;4994444;28;20117;-69
2022/09/15 04:06:00;;;;;;;5.43;1.23;;;20.10;99.90;;;;;;4993342;28;20036;-69
2022/09/15 04:08:25;;;;;;;1.92;1.05;;;20.10;99.90;;;;;;4993941;28;20113;-69
2022/09/15 04:10:51;;;;;;;4.03;1.30;;;20.10;99.90;;;;;;4993137;28;20104;-69
2022/09/15 04:13:17;;;;;;;1.80;1.00;;;20.10;99.90;;;;;;4992623;28;20034;-69
2022/09/15 04:15:43;;;;;;;2.05;1.38;;;20.00;99.90;;;;;;4991154;28;20019;-69
2022/09/15 04:18:09;;;;;;;1.85;1.10;;;20.00;99.90;;;;;;4992647;28;20026;-69
2022/09/15 04:20:38;;;;;;;2.60;0.95;;;20.00;99.90;;;;;;4993676;28;20026;-69
2022/09/15 04:23:03;;;;;;;2.03;1.00;;;20.00;99.90;;;;;;4992741;28;20049;-70
2022/09/15 04:25:29;;;;;;;2.88;1.17;;;20.00;99.90;;;;;;4993656;28;20030;-69
2022/09/15 04:27:56;;;;;;;2.38;1.15;;;20.00;99.90;;;;;;4993343;28;20499;-69
2022/09/15 04:30:22;;;;;;;1.13;1.02;;;20.00;99.90;;;;;;4993090;28;20049;-69
2022/09/15 04:32:48;;;;;;;3.58;1.30;;;20.00;99.90;;;;;;4993340;28;20144;-69
2022/09/15 04:35:15;;;;;;;2.60;1.23;;;20.00;99.90;;;;;;4992918;28;20023;-70
2022/09/15 04:37:40;;;;;;;2.08;1.00;;;20.00;99.90;;;;;;4993230;28;20385;-68
2022/09/15 04:40:08;;;;;;;3.00;0.95;;;20.00;99.90;;;;;;4992850;28;20030;-70
2022/09/15 04:42:34;;;;;;;3.90;1.20;;;20.10;99.90;;;;;;4984496;28;20138;-70
2022/09/15 04:45:00;;;;;;;2.25;1.08;;;20.10;99.90;;;;;;4973894;28;20420;-70
2022/09/15 04:47:26;;;;;;;2.97;1.10;;;20.10;99.90;;;;;;4973562;28;20026;-70
2022/09/15 04:49:52;;;;;;;5.22;1.10;;;20.10;99.90;;;;;;4973941;28;20118;-70
2022/09/15 04:52:17;;;;;;;5.10;1.38;;;20.10;99.90;;;;;;4973223;28;20039;-69
2022/09/15 04:54:43;;;;;;;2.78;1.17;;;20.10;99.90;;;;;;4973474;28;20038;-70
2022/09/15 04:57:09;;;;;;;2.20;1.05;;;20.10;99.90;;;;;;4972993;28;20038;-69
2022/09/15 04:59:35;;;;;;;1.75;1.20;;;20.10;99.90;;;;;;4973521;28;20372;-69
2022/09/15 05:02:01;;;;;;;2.45;1.10;;;20.00;99.90;;;;;;4973594;28;20031;-68
2022/09/15 05:04:26;;;;;;;3.45;1.20;;;20.00;99.90;;;;;;4973207;28;20074;-69
2022/09/15 05:06:52;;;;;;;2.13;1.25;;;20.00;99.90;;;;;;4973643;28;20027;-69
2022/09/15 05:09:17;;;;;;;2.55;1.13;;;20.00;99.90;;;;;;4973269;28;20113;-69
2022/09/15 05:11:43;;;;;;;4.35;1.48;;;20.00;99.90;;;;;;4973829;28;20082;-69
2022/09/15 05:14:09;;;;;;;2.47;0.90;;;20.10;99.90;;;;;;4972720;28;20070;-68
2022/09/15 05:16:35;;;;;;;3.35;1.00;;;20.10;99.90;;;;;;4973395;28;20034;-69
2022/09/15 05:19:02;;;;;;;1.02;0.90;;;20.10;99.90;;;;;;4973491;28;20031;-68
2022/09/15 05:21:28;;;;;;;2.33;1.15;;;20.10;99.90;;;;;;4973592;28;20038;-69
2022/09/15 05:23:54;;;;;;;3.67;1.20;;;20.10;99.90;;;;;;4974678;28;20460;-70
2022/09/15 05:26:25;;;;;;;2.15;1.10;;;20.20;99.90;;;;;;4977003;28;20062;-69
2022/09/15 05:28:51;;;;;;;3.67;0.80;;;20.20;99.90;;;;;;4977424;28;20105;-69
2022/09/15 05:31:25;;;;;;;3.25;1.17;;;20.20;99.90;;;;;;4976592;28;20066;-68
2022/09/15 05:33:52;;;;;;;3.03;1.40;;;20.20;99.90;;;;;;4977203;28;20033;-68
2022/09/15 05:36:22;;;;;;;3.30;1.10;;;20.30;99.90;;;;;;4959366;28;20067;-69
2022/09/15 05:38:48;;;;;;;2.97;1.40;;;20.30;99.90;;;;;;4976954;28;20027;-69
2022/09/15 05:41:16;;;;;;;1.65;1.00;;;20.40;99.90;;;;;;4976610;28;20042;-69
2022/09/15 05:43:43;;;;;;;2.80;1.45;;;20.50;99.90;;;;;;4959621;28;20381;-68
2022/09/15 05:46:09;;;;;;;4.20;1.40;;;20.50;99.90;;;;;;4976272;28;20023;-69
2022/09/15 05:48:35;;;;;;;2.42;1.10;;;20.60;99.90;;;;;;4977003;28;20031;-68
2022/09/15 05:51:02;;;;;;;3.25;1.17;;;20.70;99.90;;;;;;4976713;28;20079;-70
2022/09/15 05:53:29;;;;;;;3.25;1.15;;;20.70;99.90;;;;;;4976478;28;20066;-69
2022/09/15 05:56:01;;;;;;;4.40;1.30;;;20.90;99.90;;;;;;4977005;28;20455;-69
2022/09/15 05:58:28;;;;;;;1.95;0.82;;;20.90;99.90;;;;;;4976461;28;20052;-70
2022/09/15 06:00:54;;;;;;;2.45;1.23;;;20.90;99.90;;;;;;4976843;28;20041;-69
2022/09/15 06:03:20;;;;;;;2.10;1.00;;;21.00;99.90;;;;;;4975809;28;20035;-69
2022/09/15 06:05:46;;;;;;;1.30;1.00;;;21.00;99.90;;;;;;4976763;28;20062;-69
2022/09/15 06:08:12;;;;;;;1.48;0.85;;;21.00;99.90;;;;;;4976165;28;20042;-69
2022/09/15 06:10:38;;;;;;;2.65;1.08;;;21.00;99.90;;;;;;4976357;28;20031;-68
2022/09/15 06:13:04;;;;;;;1.00;0.90;;;21.10;99.90;;;;;;4976463;28;20042;-69
2022/09/15 06:15:30;;;;;;;4.20;1.17;;;21.10;99.90;;;;;;4976015;28;20022;-69
2022/09/15 06:17:56;;;;;;;1.17;0.93;;;21.20;99.80;;;;;;4976423;28;20109;-68
2022/09/15 06:20:22;;;;;;;3.35;1.05;;;21.30;99.60;;;;;;4973051;28;20147;-70
2022/09/15 06:22:47;;;;;;;2.78;1.10;;;21.30;99.10;;;;;;4975891;28;20046;-70
2022/09/15 06:25:14;;;;;;;4.40;1.27;;;21.40;98.50;;;;;;4975658;28;20034;-68
2022/09/15 06:27:40;;;;;;;2.10;1.23;;;21.40;98.20;;;;;;4976158;28;20019;-69
2022/09/15 06:30:07;;;;;;;4.18;0.75;;;21.40;98.30;;;;;;4975900;28;20031;-69
2022/09/15 06:32:34;;;;;;;4.30;0.75;;;21.50;98.40;;;;;;4975668;28;20455;-69
2022/09/15 06:35:05;;;;;;;2.80;0.95;;;21.50;97.70;;;;;;4975259;28;20042;-69
2022/09/15 06:37:34;;;;;;;1.88;1.10;;;21.60;97.30;;;;;;4958002;28;20652;-68
2022/09/15 06:40:00;;;;;;;4.35;1.00;;;21.70;96.70;;;;;;4975876;28;20031;-69
2022/09/15 06:42:26;;;;;;;4.65;1.20;;;21.70;96.60;;;;;;4974922;28;20117;-68
2022/09/15 06:44:52;;;;;;;1.38;0.93;;;21.80;96.40;;;;;;4975966;28;20121;-68
2022/09/15 06:47:18;;;;;;;4.82;1.20;;;21.80;96.30;;;;;;4975328;28;20103;-69
2022/09/15 06:49:44;;;;;;;2.08;1.20;;;21.80;96.30;;;;;;4975986;28;20041;-67
2022/09/15 06:52:10;;;;;;;3.65;1.30;;;21.70;96.40;;;;;;4975335;28;20037;-69
2022/09/15 06:54:36;;;;;;;3.90;0.80;;;21.70;96.50;;;;;;4975714;28;20451;-70
2022/09/15 06:57:01;;;;;;;2.60;1.23;;;21.70;96.60;;;;;;4975867;28;20063;-69
2022/09/15 06:59:27;;;;;;;1.27;1.13;;;21.60;96.80;;;;;;4957770;28;20148;-69
2022/09/15 07:01:53;;;;;;;2.13;1.38;;;21.60;96.80;;;;;;4975776;28;20023;-69
2022/09/15 07:04:20;;;;;;;2.28;1.20;;;21.70;96.90;;;;;;4975283;28;20042;-69
2022/09/15 07:06:46;;;;;;;1.98;0.88;;;21.60;96.90;;;;;;4975891;28;20031;-68
2022/09/15 07:09:12;;;;;;;4.10;1.10;;;21.60;96.60;;;;;;4976480;28;20042;-72
2022/09/15 07:11:38;;;;;;;2.65;1.23;;;21.60;96.60;;;;;;4976945;28;20031;-69
2022/09/15 07:14:03;;;;;;;2.35;1.30;;;21.60;96.70;;;;;;4977434;28;20039;-69
2022/09/15 07:16:29;;;;;;;2.40;1.40;;;21.60;96.30;;;;;;4976996;28;20027;-68
2022/09/15 07:18:56;;;;;;;1.73;1.00;;;21.70;95.90;;;;;;4977269;28;20027;-69
2022/09/15 07:21:22;;;;;;;3.60;1.38;;;21.70;95.20;;;;;;4975764;28;20078;-68
2022/09/15 07:23:48;;;;;;;5.30;1.05;;;21.90;95.00;;;;;;4975198;28;20045;-69
2022/09/15 07:26:22;;;;;;;2.80;0.90;;;21.90;94.00;;;;;;4974866;28;20035;-69
2022/09/15 07:28:50;;;;;;;1.83;0.80;;;21.90;93.90;;;;;;4975199;28;20100;-69
2022/09/15 07:31:19;;;;;;;1.27;0.98;;;21.90;92.70;;;;;;4974829;28;20119;-69
2022/09/15 07:33:45;;;;;;;1.70;0.90;;;21.90;92.70;;;;;;4975122;28;20026;-68
2022/09/15 07:36:10;;;;;;;1.92;0.90;;;22.00;92.10;;;;;;4974852;28;20033;-70
2022/09/15 07:38:45;;;;;;;1.98;0.77;;;22.00;92.20;;;;;;4974291;28;20113;-69
2022/09/15 07:41:15;;;;;;;1.58;1.13;;;22.00;91.40;;;;;;4957679;28;20078;-69
2022/09/15 07:43:52;;;;;;;1.90;0.90;;;22.00;91.30;;;;;;4975125;28;20081;-69
2022/09/15 07:46:19;;;;;;;3.15;0.90;;;22.00;91.00;;;;;;4974235;28;20308;-70
2022/09/15 07:48:50;;;;;;;1.13;0.80;;;22.00;90.60;;;;;;4974620;28;20074;-68
2022/09/15 07:51:16;;;;;;;3.03;1.23;;;22.00;90.70;;;;;;4974540;28;20026;-69
2022/09/15 07:53:44;;;;;;;2.40;1.10;;;22.00;90.50;;;;;;4974727;28;20038;-68
2022/09/15 07:56:09;;;;;;;4.10;1.10;;;22.00;90.70;;;;;;4957356;28;20104;-70
2022/09/15 07:58:35;;;;;;;1.05;0.80;;;22.00;90.50;;;;;;4974030;28;20149;-70
2022/09/15 08:01:06;;;;;;;1.98;0.80;;;22.10;90.40;;;;;;4974697;28;20035;-69
2022/09/15 08:03:32;;;;;;;4.25;1.70;;;22.10;90.20;;;;;;4973860;28;20041;-70
2022/09/15 08:06:02;;;;;;;2.05;1.05;;;22.10;90.40;;;;;;4972241;28;20034;-69
2022/09/15 08:08:28;;;;;;;1.23;1.00;;;22.10;90.10;;;;;;4974118;28;20042;-69
2022/09/15 08:10:55;;;;;;;3.42;1.35;;;22.10;90.20;;;;;;4974199;28;20030;-70
2022/09/15 08:13:21;;;;;;;1.27;0.95;;;22.00;90.20;;;;;;4973265;28;20038;-70
2022/09/15 08:15:47;;;;;;;1.98;0.82;;;22.10;90.50;;;;;;4973991;28;20033;-69
2022/09/15 08:18:13;;;;;;;1.02;0.77;;;22.00;90.30;;;;;;4974234;28;20052;-69
2022/09/15 08:20:40;;;;;;;1.55;1.10;;;22.10;90.30;;;;;;4956409;28;20034;-70
2022/09/15 08:23:06;;;;;;;1.55;1.10;;;22.10;90.30;;;;;;4974088;28;20073;-69
2022/09/15 08:25:32;;;;;;;1.95;1.02;;;22.10;90.50;;;;;;4973800;28;20081;-69
2022/09/15 08:27:58;;;;;;;2.95;1.00;;;22.10;90.40;;;;;;4973943;28;20034;-69
2022/09/15 08:30:25;;;;;;;2.10;0.75;;;22.00;90.40;;;;;;4973031;28;20439;-69
2022/09/15 08:32:51;;;;;;;1.33;1.00;;;22.00;90.70;;;;;;4973833;28;20467;-68
2022/09/15 08:35:17;;;;;;;1.58;0.95;;;22.00;90.50;;;;;;4973760;28;20113;-70
2022/09/15 08:37:43;;;;;;;1.80;0.90;;;22.00;90.50;;;;;;4973193;28;20447;-69
2022/09/15 08:40:16;;;;;;;4.38;1.00;;;22.00;90.70;;;;;;4956346;28;20038;-69
2022/09/15 08:42:43;;;;;;;3.58;1.05;;;21.90;90.70;;;;;;4982846;28;20475;-69
2022/09/15 08:45:57;;;;;;;1.02;0.88;;;21.90;90.90;;;;;;4992922;28;20117;-68
2022/09/15 08:48:28;;;;;;;1.73;0.70;;;22.00;91.00;;;;;;4992957;28;20109;-68
2022/09/15 08:50:58;;;;;;;2.20;0.82;;;22.00;91.00;;;;;;4993496;28;20065;-69
2022/09/15 08:53:33;;;;;;;1.73;0.95;;;22.00;91.30;;;;;;4992991;28;20038;-69
2022/09/15 08:56:04;;;;;;;1.98;1.05;;;22.10;91.30;;;;;;4993164;28;20466;-68
2022/09/15 08:58:37;;;;;;;2.92;0.70;;;22.10;91.00;;;;;;4992143;28;20485;-69
2022/09/15 09:01:20;;;;;;;1.10;0.75;;;22.20;90.90;;;;;;4993138;28;20419;-70
2022/09/15 09:03:56;;;;;;;1.90;0.98;;;22.30;90.50;;;;;;4993185;28;20058;-70
2022/09/15 09:06:59;;;;;;;1.25;0.80;;;22.50;89.40;;;;;;4992803;28;20027;-70
2022/09/15 09:09:32;;;;;;;1.38;0.85;;;22.70;89.40;;;;;;4992477;28;20178;-71
2022/09/15 09:12:31;;;;;;;2.58;1.40;;;22.90;87.50;;;;;;4992803;28;20030;-70
2022/09/15 09:15:23;;;;;;;1.33;0.90;;;23.00;86.80;;;;;;4979365;28;20042;-70
2022/09/15 09:18:22;;;;;;;3.00;1.08;;;23.00;84.50;;;;;;4992983;28;20026;-70
2022/09/15 09:20:50;;;;;;;1.00;0.70;;;23.10;84.60;;;;;;4993121;28;20034;-70
2022/09/15 09:23:25;;;;;;;3.17;0.82;;;23.10;83.70;;;;;;4992951;28;20038;-69
2022/09/15 09:25:51;;;;;;;2.00;0.90;;;23.10;82.40;;;;;;4992906;28;20026;-68
2022/09/15 09:28:34;;;;;;;1.50;0.90;;;23.10;82.60;;;;;;4992794;28;20057;-68
2022/09/15 09:31:06;;;;;;;4.28;0.82;;;23.00;83.00;;;;;;4992601;28;20081;-69
2022/09/15 09:33:49;;;;;;;2.08;0.88;;;22.90;83.80;;;;;;4992189;28;20034;-70
2022/09/15 09:36:15;;;;;;;1.30;0.95;;;22.80;84.60;;;;;;4992511;28;20387;-69
2022/09/15 09:38:43;;;;;;;1.98;0.98;;;22.80;85.20;;;;;;4992460;28;20023;-70
2022/09/15 09:41:14;;;;;;;3.72;1.10;;;22.70;85.80;;;;;;4992799;28;20494;-68
2022/09/15 09:43:42;;;;;;;1.35;1.02;;;22.60;87.30;;;;;;4974565;28;20051;-68
2022/09/15 09:46:15;;;;;;;0.80;0.80;;;22.60;87.40;;;;;;4992688;28;20390;-69
2022/09/15 09:48:46;;;;;;;2.53;0.90;;;22.40;87.80;;;;;;4992454;28;20105;-68
2022/09/15 09:52:01;;;;;;;1.20;0.95;;;22.40;88.10;;;;;;4992506;28;20022;-68
2022/09/15 09:54:29;;;;;;;2.30;1.15;;;22.30;88.50;;;;;;4972254;28;20038;-69
2022/09/15 09:57:16;;;;;;;1.70;0.75;;;22.30;89.50;;;;;;4992888;28;20034;-69
2022/09/15 09:59:49;;;;;;;1.98;0.88;;;22.30;89.90;;;;;;4992182;28;20041;-68
2022/09/15 10:02:16;;;;;;;2.83;0.90;;;22.20;89.90;;;;;;4992577;28;20085;-68
2022/09/15 10:05:14;;;;;;;1.33;0.75;;;22.20;90.30;;;;;;4978372;28;20042;-69
2022/09/15 10:07:44;;;;;;;2.58;0.70;;;22.20;90.60;;;;;;4973364;28;20085;-69
2022/09/15 10:10:24;;;;;;;1.42;1.02;;;22.10;90.80;;;;;;4992800;28;20023;-69
2022/09/15 10:12:54;;;;;;;1.58;1.08;;;22.10;91.50;;;;;;4995996;28;20368;-69
2022/09/15 10:15:28;;;;;;;1.70;0.93;;;22.00;91.40;;;;;;4978449;28;20066;-68
2022/09/15 10:17:55;;;;;;;1.40;0.82;;;21.90;91.90;;;;;;4995937;28;20509;-69
2022/09/15 10:20:44;;;;;;;3.05;0.90;;;21.80;92.00;;;;;;4995894;28;20479;-69
2022/09/15 10:23:15;;;;;;;2.35;0.98;;;21.80;92.30;;;;;;4995769;28;20039;-68
2022/09/15 10:25:41;;;;;;;1.08;0.90;;;21.80;92.80;;;;;;4994892;28;20073;-69
2022/09/15 10:28:17;;;;;;;1.15;1.00;;;21.80;92.80;;;;;;4995728;28;20467;-70
2022/09/15 10:30:59;;;;;;;3.45;0.93;;;21.70;93.50;;;;;;4994956;28;20058;-70
2022/09/15 10:33:36;;;;;;;1.17;1.08;;;21.80;93.40;;;;;;4995436;28;20118;-68
2022/09/15 10:36:15;;;;;;;2.00;1.00;;;21.80;93.80;;;;;;4995189;28;20033;-68
2022/09/15 10:38:55;;;;;;;0.95;0.85;;;21.70;93.80;;;;;;4994843;28;20092;-69
2022/09/15 10:41:31;;;;;;;3.63;0.90;;;21.70;93.40;;;;;;4995043;28;20023;-68
2022/09/15 10:44:33;;;;;;;2.10;1.00;;;21.70;93.70;;;;;;4995518;28;20057;-70
2022/09/15 10:47:14;;;;;;;2.03;1.17;;;21.60;94.10;;;;;;4995584;28;20030;-70
2022/09/15 10:49:54;;;;;;;2.22;1.23;;;21.60;94.10;;;;;;4994554;28;20073;-68
2022/09/15 10:52:35;;;;;;;4.78;1.33;;;21.60;93.80;;;;;;4995346;28;20056;-69
2022/09/15 10:55:37;;;;;;;2.63;0.90;;;21.50;93.80;;;;;;4995394;28;20493;-68
2022/09/15 10:58:24;;;;;;;1.80;1.10;;;21.50;94.40;;;;;;4995312;28;20105;-69
2022/09/15 11:01:16;;;;;;;2.38;1.00;;;21.40;94.30;;;;;;4994983;28;20049;-69
2022/09/15 11:04:11;;;;;;;2.08;0.90;;;21.40;94.30;;;;;;4994621;28;20434;-69
2022/09/15 11:06:55;;;;;;;1.63;0.80;;;21.40;94.80;;;;;;4994638;28;20054;-69
2022/09/15 11:09:28;;;;;;;1.92;0.85;;;21.30;95.00;;;;;;4994874;28;20085;-69
2022/09/15 11:12:11;;;;;;;1.63;0.90;;;21.20;95.30;;;;;;4994344;28;20032;-68
2022/09/15 11:14:47;;;;;;;1.98;1.10;;;21.20;96.00;;;;;;4994611;28;20034;-68
2022/09/15 11:17:22;;;;;;;1.00;0.80;;;21.20;96.00;;;;;;4994858;28;20462;-69
2022/09/15 11:19:56;;;;;;;1.27;1.00;;;21.20;96.10;;;;;;4994733;28;20027;-68
2022/09/15 11:22:28;;;;;;;1.77;1.00;;;21.10;96.50;;;;;;4994000;28;20070;-69
2022/09/15 11:25:02;;;;;;;1.42;0.88;;;21.20;96.00;;;;;;4993939;28;20022;-69
2022/09/15 11:27:36;;;;;;;2.05;1.00;;;21.10;96.40;;;;;;4994587;28;20185;-69
2022/09/15 11:30:01;;;;;;;0.98;0.70;;;21.10;96.00;;;;;;4994779;28;20469;-68
2022/09/15 11:32:37;;;;;;;0.60;0.60;;;21.10;95.30;;;;;;4994277;28;20035;-69
2022/09/15 11:35:06;;;;;;;0.73;0.73;;;21.10;94.90;;;;;;4994441;28;20023;-69
2022/09/15 11:37:43;;;;;;;0.70;0.70;;;21.10;95.10;;;;;;4994054;28;20034;-71
2022/09/15 11:40:29;;;;;;;0.73;0.70;;;21.00;94.80;;;;;;4994460;28;20375;-68
2022/09/15 11:43:20;;;;;;;1.77;0.93;;;21.10;95.10;;;;;;4993537;28;20360;-69
2022/09/15 11:45:54;;;;;;;2.30;0.57;;;21.00;95.60;;;;;;4987911;28;20170;-69
2022/09/15 11:48:42;;;;;;;1.98;0.98;;;21.00;95.40;;;;;;4994239;28;20030;-69
2022/09/15 11:51:11;;;;;;;1.80;0.77;;;21.00;95.50;;;;;;4994422;28;20057;-69
2022/09/15 11:53:44;;;;;;;2.15;0.82;;;21.00;95.90;;;;;;4993671;28;20029;-69
2022/09/15 11:56:13;;;;;;;0.70;0.70;;;21.00;96.20;;;;;;4994064;28;20019;-68
2022/09/15 11:59:00;;;;;;;1.23;0.73;;;20.90;96.20;;;;;;4990388;28;20018;-69
2022/09/15 12:02:08;;;;;;;1.40;0.70;;;20.90;96.20;;;;;;4974486;28;20038;-69
2022/09/15 12:05:02;;;;;;;5.18;0.90;;;20.90;96.50;;;;;;4972630;28;20045;-70
2022/09/15 12:07:31;;;;;;;0.80;0.52;;;20.90;95.80;;;;;;4963878;28;20546;-68
2022/09/15 12:10:24;;;;;;;1.05;0.90;;;21.00;95.80;;;;;;4974030;28;20430;-69
2022/09/15 12:12:52;;;;;;;1.58;0.95;;;21.00;96.00;;;;;;4987991;28;20042;-68
2022/09/15 12:15:25;;;;;;;0.82;0.80;;;20.90;96.70;;;;;;4993533;28;20133;-69
2022/09/15 12:17:56;;;;;;;1.05;0.90;;;20.90;96.60;;;;;;4993324;28;20030;-68
2022/09/15 12:20:36;;;;;;;3.83;1.00;;;20.90;96.90;;;;;;4993727;28;20026;-68
2022/09/15 12:23:11;;;;;;;1.65;0.90;;;20.90;97.50;;;;;;4993324;28;20035;-69
2022/09/15 12:26:04;;;;;;;1.88;1.25;;;20.80;98.00;;;;;;4992963;28;20122;-71
2022/09/15 12:28:41;;;;;;;2.40;1.30;;;20.80;98.50;;;;;;4993268;28;20455;-69
2022/09/15 12:31:23;;;;;;;2.25;1.00;;;20.80;98.70;;;;;;4993593;28;20033;-68
2022/09/15 12:34:00;;;;;;;2.55;1.60;;;20.90;98.90;;;;;;4992002;28;20482;-69
2022/09/15 12:36:33;;;;;;;1.77;1.17;;;20.90;98.60;;;;;;4993154;28;20026;-68
2022/09/15 12:39:00;;;;;;;2.53;1.20;;;20.90;98.70;;;;;;4993335;28;20430;-68
2022/09/15 12:41:27;;;;;;;2.67;1.40;;;20.90;98.80;;;;;;4993445;28;20033;-69
2022/09/15 12:44:15;;;;;;;1.60;1.08;;;20.90;99.10;;;;;;4993084;28;20058;-68
2022/09/15 12:46:53;;;;;;;1.95;1.00;;;20.90;99.40;;;;;;4992724;28;20018;-70
2022/09/15 12:49:22;;;;;;;2.03;1.23;;;20.90;99.40;;;;;;4993284;28;20126;-70
2022/09/15 12:51:49;;;;;;;1.90;1.15;;;20.90;99.60;;;;;;4992841;28;20038;-69
2022/09/15 12:54:37;;;;;;;4.18;1.70;;;21.00;99.90;;;;;;4993064;28;20034;-68
2022/09/15 12:57:05;;;;;;;2.28;1.55;;;21.00;99.90;;;;;;4993310;28;20057;-69
2022/09/15 12:59:31;;;;;;;0.88;0.73;;;21.00;99.90;;;;;;4992760;28;20054;-69
2022/09/15 13:01:57;;;;;;;2.22;1.20;;;21.10;99.90;;;;;;4992420;28;20034;-69
2022/09/15 13:04:42;;;;;;;1.80;1.10;;;21.20;99.90;;;;;;4992811;28;20074;-68
2022/09/15 13:07:13;;;;;;;1.92;1.27;;;21.20;99.80;;;;;;4992934;28;20030;-68
2022/09/15 13:09:44;;;;;;;2.15;1.08;;;21.20;99.40;;;;;;4992181;28;20431;-69
2022/09/15 13:12:13;;;;;;;;;;;21.20;99.10;;;;;;4993287;28;20026;-70
2022/09/15 13:14:43;;;;;;;1.13;0.88;;;21.20;98.90;;;;;;4992570;28;19906;-70